Time;durP1;ratioP1;P1;durP2;ratioP2;P2;SDS_P1;SDS_P2;PMS_P1;PMS_P2;Temp;Humidity;BMP_temperature;BMP_pressure;BME280_temperature;BME280_humidity;BME280_pressure;Samples;Min_cycle;Max_cycle;Signal;HPM_P1;HPM_P2
2022/11/11 00:00:01;;;;;;;16.52;6.85;;;11.70;99.90;;;;;;5006643;28;20410;-77
2022/11/11 00:02:26;;;;;;;12.25;7.10;;;11.70;99.90;;;;;;4992065;28;20049;-78
2022/11/11 00:04:52;;;;;;;16.55;7.80;;;11.60;99.90;;;;;;4995198;28;20034;-77
2022/11/11 00:07:17;;;;;;;14.02;7.43;;;11.60;99.90;;;;;;4979006;28;20034;-77
2022/11/11 00:09:43;;;;;;;11.57;6.72;;;11.60;99.90;;;;;;4994970;28;20041;-77
2022/11/11 00:12:08;;;;;;;13.95;8.05;;;11.60;99.90;;;;;;4995118;28;20053;-76
2022/11/11 00:14:34;;;;;;;14.45;7.45;;;11.60;99.90;;;;;;4995365;28;20380;-76
2022/11/11 00:25:16;;;;;;;16.20;7.85;;;11.60;99.90;;;;;;4994857;28;20100;-77
2022/11/11 00:27:41;;;;;;;14.68;7.25;;;11.60;99.90;;;;;;4994620;28;20038;-77
2022/11/11 00:30:08;;;;;;;12.13;6.82;;;11.60;99.90;;;;;;4994923;28;20380;-77
2022/11/11 00:32:33;;;;;;;13.98;8.02;;;11.60;99.90;;;;;;4994709;28;20070;-77
2022/11/11 00:37:47;;;;;;;12.10;7.80;;;11.60;99.90;;;;;;4994455;28;20081;-77
2022/11/11 00:40:13;;;;;;;15.18;8.40;;;11.60;99.90;;;;;;4994586;28;20427;-77
2022/11/11 00:42:38;;;;;;;11.93;7.65;;;11.60;99.90;;;;;;4994858;28;20045;-77
2022/11/11 00:45:05;;;;;;;12.90;7.38;;;11.60;99.90;;;;;;4994507;28;20076;-77
2022/11/11 00:53:16;;;;;;;13.63;7.35;;;11.60;99.90;;;;;;4994434;28;20084;-76
2022/11/11 00:55:41;;;;;;;17.35;7.05;;;11.60;99.90;;;;;;4993656;28;20117;-76
2022/11/11 00:58:07;;;;;;;16.27;7.90;;;11.60;99.90;;;;;;4992747;28;20129;-76
2022/11/11 01:00:32;;;;;;;12.98;8.02;;;11.60;99.90;;;;;;4994690;28;20037;-76
2022/11/11 01:02:58;;;;;;;15.10;8.30;;;11.60;99.90;;;;;;4994294;28;20038;-76
2022/11/11 01:05:24;;;;;;;15.18;8.15;;;11.70;99.90;;;;;;4994320;28;20554;-76
2022/11/11 01:07:50;;;;;;;16.17;8.70;;;11.60;99.90;;;;;;4994331;28;20101;-77
2022/11/11 01:10:36;;;;;;;16.30;8.98;;;11.70;99.90;;;;;;4977961;28;20038;-76
2022/11/11 01:13:12;;;;;;;18.13;8.35;;;11.70;99.90;;;;;;4994524;28;20680;-76
2022/11/11 01:15:46;;;;;;;16.80;8.07;;;11.70;99.90;;;;;;4994317;28;20072;-77
2022/11/11 01:18:14;;;;;;;16.30;8.32;;;11.70;99.90;;;;;;4981423;28;20038;-77
2022/11/11 01:20:40;;;;;;;15.20;8.40;;;11.60;99.90;;;;;;5002381;28;20125;-77
2022/11/11 01:23:07;;;;;;;16.08;8.85;;;11.60;99.90;;;;;;4994007;28;20042;-77
2022/11/11 01:25:37;;;;;;;19.08;8.88;;;11.60;99.90;;;;;;4993736;28;20038;-77
2022/11/11 01:28:04;;;;;;;15.07;8.55;;;11.60;99.90;;;;;;4993523;28;20034;-77
2022/11/11 01:30:31;;;;;;;15.00;8.43;;;11.70;99.90;;;;;;4993635;28;20068;-77
2022/11/11 01:32:57;;;;;;;17.50;8.52;;;11.60;99.90;;;;;;4993719;28;20058;-77
2022/11/11 01:35:23;;;;;;;16.23;8.90;;;11.60;99.90;;;;;;4994140;28;20038;-77
2022/11/11 01:37:49;;;;;;;14.63;8.35;;;11.60;99.90;;;;;;4993668;28;20056;-77
2022/11/11 01:40:15;;;;;;;16.23;8.50;;;11.60;99.90;;;;;;4994076;28;20128;-77
2022/11/11 01:43:14;;;;;;;18.10;9.30;;;11.60;99.90;;;;;;4993657;28;20054;-77
2022/11/11 01:45:59;;;;;;;17.70;9.35;;;11.60;99.90;;;;;;4988594;28;20521;-77
2022/11/11 01:51:33;;;;;;;16.52;8.98;;;11.60;99.90;;;;;;4993534;28;20061;-77
2022/11/11 01:54:01;;;;;;;;;;;11.60;99.90;;;;;;4994168;28;20507;-77
2022/11/11 01:56:27;;;;;;;16.42;9.20;;;11.60;99.90;;;;;;4993956;28;20282;-77
2022/11/11 01:58:56;;;;;;;14.20;8.32;;;11.60;99.90;;;;;;4977389;28;20049;-77
2022/11/11 02:01:22;;;;;;;15.73;9.10;;;11.60;99.90;;;;;;5011350;28;20075;-77
2022/11/11 02:06:35;;;;;;;11.90;8.05;;;11.60;99.90;;;;;;4993551;28;20054;-77
2022/11/11 02:09:02;;;;;;;14.68;9.88;;;11.60;99.90;;;;;;4993437;28;20439;-77
2022/11/11 02:16:59;;;;;;;;;;;11.60;99.90;;;;;;4998024;28;20371;-77
2022/11/11 02:19:34;;;;;;;15.63;8.85;;;11.60;99.90;;;;;;4997210;28;19925;-77
2022/11/11 02:22:01;;;;;;;15.38;9.43;;;11.60;99.90;;;;;;4997212;28;20080;-77
2022/11/11 02:24:29;;;;;;;21.27;9.60;;;11.60;99.90;;;;;;4997114;28;20053;-77
2022/11/11 02:26:57;;;;;;;18.05;9.98;;;11.60;99.90;;;;;;4997362;28;20046;-77
2022/11/11 02:29:23;;;;;;;17.13;10.25;;;11.60;99.90;;;;;;4996913;28;20044;-77
2022/11/11 02:31:48;;;;;;;21.02;9.98;;;11.60;99.90;;;;;;4996932;28;20053;-77
2022/11/11 02:34:14;;;;;;;17.52;9.88;;;11.60;99.90;;;;;;4997010;28;20045;-77
2022/11/11 02:36:41;;;;;;;16.40;10.65;;;11.60;99.90;;;;;;4997146;28;20381;-77
2022/11/11 02:39:06;;;;;;;18.23;10.60;;;11.60;99.90;;;;;;4996623;28;20045;-77
2022/11/11 02:44:16;;;;;;;;;;;11.50;99.90;;;;;;4997249;28;20177;-77
2022/11/11 02:46:41;;;;;;;18.02;11.88;;;11.50;99.90;;;;;;4996999;28;20397;-77
2022/11/11 02:49:07;;;;;;;22.98;12.40;;;11.40;99.90;;;;;;4996797;28;20053;-77
2022/11/11 02:51:32;;;;;;;20.48;12.43;;;11.40;99.90;;;;;;4996539;28;20042;-77
2022/11/11 02:53:58;;;;;;;20.70;12.82;;;11.40;99.90;;;;;;4996975;28;20118;-77
2022/11/11 02:59:08;;;;;;;21.75;12.98;;;11.30;99.90;;;;;;4996320;28;20559;-77
2022/11/11 03:01:34;;;;;;;20.00;12.80;;;11.30;99.90;;;;;;4995838;28;20120;-77
2022/11/11 03:03:59;;;;;;;23.60;14.52;;;11.20;99.90;;;;;;4995859;28;20440;-77
2022/11/11 03:06:25;;;;;;;24.77;15.18;;;11.20;99.90;;;;;;4996851;28;20071;-77
2022/11/11 03:08:50;;;;;;;23.25;15.30;;;11.20;99.90;;;;;;4995117;28;20033;-77
2022/11/11 03:11:26;;;;;;;24.02;15.25;;;11.20;99.90;;;;;;4995590;28;20619;-77
2022/11/11 03:14:01;;;;;;;22.98;15.40;;;11.10;99.90;;;;;;4996655;28;20385;-77
2022/11/11 03:19:11;;;;;;;25.50;16.17;;;11.10;99.90;;;;;;4995809;28;20069;-77
2022/11/11 03:21:37;;;;;;;23.02;15.65;;;11.10;99.90;;;;;;4995097;28;20041;-77
2022/11/11 03:24:02;;;;;;;25.00;17.08;;;11.10;99.90;;;;;;4995838;28;20045;-77
2022/11/11 03:26:28;;;;;;;25.60;16.20;;;11.00;99.90;;;;;;4996504;28;20049;-77
2022/11/11 03:28:54;;;;;;;27.92;17.23;;;11.00;99.90;;;;;;4995979;28;20065;-77
2022/11/11 03:31:19;;;;;;;25.23;16.50;;;11.00;99.90;;;;;;4979996;28;20037;-77
2022/11/11 03:33:45;;;;;;;26.65;16.08;;;11.00;99.90;;;;;;4995836;28;20046;-77
2022/11/11 03:36:10;;;;;;;25.42;16.67;;;11.00;99.90;;;;;;4995898;28;20050;-77
2022/11/11 03:38:36;;;;;;;23.88;16.90;;;11.00;99.90;;;;;;4995529;28;20073;-77
2022/11/11 03:41:02;;;;;;;26.25;17.00;;;11.00;99.90;;;;;;4996084;28;20049;-77
2022/11/11 03:43:30;;;;;;;26.00;17.15;;;11.00;99.90;;;;;;4995906;28;20030;-77
2022/11/11 03:45:57;;;;;;;26.70;17.88;;;11.00;99.90;;;;;;4996083;28;20439;-76
2022/11/11 03:48:24;;;;;;;32.28;18.25;;;11.00;99.90;;;;;;4995595;28;20555;-77
2022/11/11 03:50:51;;;;;;;26.63;17.95;;;11.00;99.90;;;;;;4995918;28;20033;-76
2022/11/11 03:53:19;;;;;;;27.17;17.27;;;11.00;99.90;;;;;;4995454;28;20046;-77
2022/11/11 03:55:44;;;;;;;24.70;17.38;;;11.00;99.90;;;;;;4995305;28;20069;-77
2022/11/11 03:58:10;;;;;;;29.52;17.10;;;11.00;99.90;;;;;;4993928;28;20077;-77
2022/11/11 04:00:36;;;;;;;27.98;17.70;;;10.90;99.90;;;;;;4994701;28;20049;-77
2022/11/11 04:11:25;;;;;;;28.35;16.90;;;11.00;99.90;;;;;;4995278;28;20076;-77
2022/11/11 04:16:37;;;;;;;26.63;16.75;;;11.00;99.90;;;;;;4995251;28;20049;-77
2022/11/11 04:21:46;;;;;;;;;;;11.00;99.90;;;;;;4995503;28;20077;-77
2022/11/11 04:27:01;;;;;;;26.10;18.08;;;11.00;99.90;;;;;;4994862;28;20042;-77
2022/11/11 04:29:28;;;;;;;29.55;19.50;;;11.00;99.90;;;;;;4978479;28;20042;-77
2022/11/11 04:34:41;;;;;;;29.92;18.35;;;11.00;99.90;;;;;;4994342;28;20050;-77
2022/11/11 04:37:07;;;;;;;29.75;18.33;;;10.90;99.90;;;;;;4994760;28;20033;-77
2022/11/11 04:42:16;;;;;;;26.67;18.05;;;11.00;99.90;;;;;;4993654;28;20049;-77
2022/11/11 04:47:26;;;;;;;29.83;18.88;;;11.00;99.90;;;;;;4994475;28;20049;-78
2022/11/11 04:49:51;;;;;;;25.65;18.42;;;10.90;99.90;;;;;;4978348;28;20034;-78
2022/11/11 04:52:26;;;;;;;27.85;18.50;;;10.90;99.90;;;;;;4994841;28;20403;-77
2022/11/11 04:57:44;;;;;;;30.30;20.05;;;10.90;99.90;;;;;;4993940;28;20046;-77
2022/11/11 05:00:12;;;;;;;30.75;19.83;;;10.90;99.90;;;;;;4994216;28;20052;-76
2022/11/11 05:05:23;;;;;;;29.48;19.27;;;10.90;99.90;;;;;;4994258;28;20104;-78
2022/11/11 05:10:33;;;;;;;28.33;19.73;;;10.90;99.90;;;;;;4994109;28;20077;-76
2022/11/11 05:21:19;;;;;;;36.42;20.67;;;10.80;99.90;;;;;;4994081;28;20046;-77
2022/11/11 05:26:28;;;;;;;;;;;10.80;99.90;;;;;;4994522;28;20044;-78
2022/11/11 05:28:54;;;;;;;33.67;19.67;;;10.80;99.90;;;;;;4993509;28;20255;-77
2022/11/11 05:31:19;;;;;;;30.55;20.05;;;10.80;99.90;;;;;;4994299;28;20068;-77
2022/11/11 05:33:45;;;;;;;31.63;19.73;;;10.80;99.90;;;;;;4993825;28;20048;-77
2022/11/11 05:36:10;;;;;;;31.45;19.15;;;10.80;99.90;;;;;;4993966;28;20814;-77
2022/11/11 05:38:36;;;;;;;29.08;19.75;;;10.70;99.90;;;;;;4993641;28;20041;-77
2022/11/11 05:41:01;;;;;;;31.13;20.58;;;10.70;99.90;;;;;;4993759;28;20500;-77
2022/11/11 05:43:27;;;;;;;34.80;20.80;;;10.60;99.90;;;;;;4994064;28;20042;-77
2022/11/11 05:45:52;;;;;;;31.92;21.17;;;10.60;99.90;;;;;;4994081;28;20033;-77
2022/11/11 05:48:18;;;;;;;30.33;19.73;;;10.50;99.90;;;;;;4997565;28;20038;-77
2022/11/11 05:50:43;;;;;;;29.35;19.77;;;10.50;99.90;;;;;;4998251;28;20411;-78
2022/11/11 05:53:09;;;;;;;30.17;20.25;;;10.50;99.90;;;;;;4997754;28;20077;-77
2022/11/11 05:55:34;;;;;;;31.90;19.75;;;10.50;99.90;;;;;;4997764;28;20044;-77
2022/11/11 05:58:00;;;;;;;29.77;19.17;;;10.40;99.90;;;;;;4997647;28;20403;-77
2022/11/11 06:00:26;;;;;;;28.75;19.65;;;10.40;99.90;;;;;;4997617;28;20069;-77
2022/11/11 06:02:51;;;;;;;26.95;19.58;;;10.40;99.90;;;;;;4997762;28;20034;-77
2022/11/11 06:05:17;;;;;;;28.98;19.17;;;10.50;99.90;;;;;;4997557;28;20502;-77
2022/11/11 06:07:42;;;;;;;30.50;18.23;;;10.50;99.90;;;;;;4997540;28;20042;-77
2022/11/11 06:13:03;;;;;;;28.35;18.77;;;10.70;99.90;;;;;;4997441;28;20128;-77
2022/11/11 06:15:33;;;;;;;29.50;17.60;;;10.80;99.90;;;;;;4982944;28;20042;-77
2022/11/11 06:17:59;;;;;;;28.63;18.10;;;10.80;99.90;;;;;;4976966;28;20034;-77
2022/11/11 06:20:25;;;;;;;31.13;17.67;;;10.90;99.90;;;;;;4961335;28;20049;-77
2022/11/11 06:22:56;;;;;;;27.73;18.15;;;10.90;99.90;;;;;;4985459;28;20063;-77
2022/11/11 06:28:08;;;;;;;27.23;19.08;;;11.00;99.90;;;;;;4996979;28;20061;-77
2022/11/11 06:30:33;;;;;;;33.53;18.80;;;10.90;99.90;;;;;;4992705;28;20034;-77
2022/11/11 06:32:59;;;;;;;31.48;19.33;;;11.00;99.90;;;;;;4977929;28;20408;-76
2022/11/11 06:35:24;;;;;;;32.17;19.55;;;11.00;99.90;;;;;;4996809;28;20052;-76
2022/11/11 06:37:50;;;;;;;33.05;20.88;;;11.00;99.90;;;;;;4997015;28;20045;-76
2022/11/11 06:40:15;;;;;;;32.97;20.15;;;11.00;99.90;;;;;;4996342;28;20073;-77
2022/11/11 06:42:41;;;;;;;31.95;19.02;;;11.00;99.90;;;;;;4994393;28;20566;-77
2022/11/11 06:45:07;;;;;;;32.08;20.75;;;11.00;99.90;;;;;;4993764;28;20052;-77
2022/11/11 06:47:32;;;;;;;33.42;20.80;;;11.00;99.90;;;;;;4995242;28;20117;-77
2022/11/11 06:49:58;;;;;;;35.83;20.60;;;11.00;99.90;;;;;;5013532;28;20157;-76
2022/11/11 06:52:23;;;;;;;33.45;21.40;;;11.00;99.90;;;;;;4996076;28;20179;-76
2022/11/11 06:54:49;;;;;;;32.50;19.77;;;11.00;99.90;;;;;;4996250;28;20045;-77
2022/11/11 06:57:14;;;;;;;31.55;20.33;;;11.00;99.90;;;;;;4996339;28;20041;-77
2022/11/11 06:59:40;;;;;;;32.85;20.85;;;11.00;99.90;;;;;;4996468;28;20411;-76
2022/11/11 07:02:07;;;;;;;31.13;19.85;;;11.00;99.90;;;;;;4996491;28;20061;-76
2022/11/11 07:04:32;;;;;;;30.98;20.05;;;11.00;99.90;;;;;;4980243;28;20088;-76
2022/11/11 07:06:58;;;;;;;30.17;19.67;;;11.00;99.90;;;;;;4996592;28;20439;-78
2022/11/11 07:09:25;;;;;;;29.98;21.02;;;11.00;99.90;;;;;;4996151;28;20038;-77
2022/11/11 07:11:50;;;;;;;32.88;21.60;;;11.00;99.90;;;;;;4996351;28;20065;-78
2022/11/11 07:14:16;;;;;;;32.70;20.35;;;11.00;99.90;;;;;;4996505;28;20491;-77
2022/11/11 07:16:41;;;;;;;31.23;21.00;;;11.00;99.90;;;;;;4980139;28;20087;-76
2022/11/11 07:19:07;;;;;;;35.10;20.88;;;11.00;99.90;;;;;;4996095;28;20470;-77
2022/11/11 07:21:32;;;;;;;38.20;21.85;;;11.00;99.90;;;;;;4996269;28;20059;-77
2022/11/11 07:23:58;;;;;;;34.45;21.17;;;11.00;99.90;;;;;;4996394;28;20049;-75
2022/11/11 07:26:23;;;;;;;33.15;19.65;;;11.00;99.90;;;;;;4996084;28;20129;-75
2022/11/11 07:28:50;;;;;;;33.72;21.02;;;11.00;99.90;;;;;;4995779;28;20045;-76
2022/11/11 07:31:15;;;;;;;29.83;19.48;;;11.00;99.90;;;;;;4995022;28;20037;-76
2022/11/11 07:33:41;;;;;;;35.40;21.52;;;11.00;99.90;;;;;;4994249;28;20033;-75
2022/11/11 07:36:06;;;;;;;31.80;19.50;;;11.00;99.90;;;;;;4994923;28;20065;-74
2022/11/11 07:38:32;;;;;;;32.63;21.08;;;11.00;99.90;;;;;;4994377;28;20414;-75
2022/11/11 07:40:57;;;;;;;29.98;19.42;;;11.00;99.90;;;;;;4995280;28;20068;-75
2022/11/11 07:43:24;;;;;;;33.65;20.08;;;11.00;99.90;;;;;;4995009;28;20557;-75
2022/11/11 07:45:50;;;;;;;33.95;19.30;;;11.00;99.90;;;;;;4995846;28;20045;-75
2022/11/11 07:48:15;;;;;;;29.65;19.85;;;11.00;99.90;;;;;;4995718;28;20037;-76
2022/11/11 07:50:41;;;;;;;30.20;20.25;;;11.00;99.90;;;;;;4995846;28;20121;-75
2022/11/11 07:53:06;;;;;;;28.27;19.20;;;11.00;99.90;;;;;;5013281;28;20140;-75
2022/11/11 07:55:32;;;;;;;33.75;19.65;;;11.00;99.90;;;;;;5013368;28;20093;-75
2022/11/11 07:57:57;;;;;;;30.70;19.50;;;11.00;99.90;;;;;;4995263;28;20045;-76
2022/11/11 08:00:23;;;;;;;33.67;19.70;;;11.00;99.90;;;;;;4995799;28;20054;-75
2022/11/11 08:02:49;;;;;;;32.92;20.30;;;11.00;99.90;;;;;;4995630;28;20038;-75
2022/11/11 08:05:15;;;;;;;36.65;20.30;;;11.00;99.90;;;;;;4995257;28;20492;-75
2022/11/11 08:07:43;;;;;;;30.17;19.05;;;11.00;99.90;;;;;;4994515;28;20034;-75
2022/11/11 08:10:10;;;;;;;30.27;17.95;;;11.00;99.90;;;;;;4995198;28;20080;-75
2022/11/11 08:15:20;;;;;;;;;;;11.10;99.90;;;;;;4995708;28;20341;-75
2022/11/11 08:17:45;;;;;;;27.73;18.30;;;11.10;99.90;;;;;;4995027;28;19917;-75
2022/11/11 08:20:12;;;;;;;28.13;18.65;;;11.10;99.90;;;;;;4995157;28;20065;-75
2022/11/11 08:22:41;;;;;;;28.08;18.02;;;11.10;99.90;;;;;;4995020;28;20053;-76
2022/11/11 08:25:09;;;;;;;28.67;18.52;;;11.10;99.90;;;;;;4978594;28;20046;-76
2022/11/11 08:27:36;;;;;;;29.05;17.95;;;11.10;99.90;;;;;;4994822;28;20487;-76
2022/11/11 08:30:03;;;;;;;32.00;18.77;;;11.10;99.90;;;;;;4994622;28;20173;-76
2022/11/11 08:32:29;;;;;;;27.48;18.58;;;11.10;99.90;;;;;;4994684;28;20041;-77
2022/11/11 08:34:54;;;;;;;31.13;18.50;;;11.10;99.90;;;;;;4995010;28;20045;-76
2022/11/11 08:37:20;;;;;;;31.48;18.45;;;11.10;99.90;;;;;;4993939;28;20046;-76
2022/11/11 08:39:45;;;;;;;33.72;19.23;;;11.10;99.90;;;;;;4993958;28;20053;-76
2022/11/11 08:42:11;;;;;;;29.90;18.77;;;11.20;99.90;;;;;;4994263;28;20046;-76
2022/11/11 08:44:36;;;;;;;31.58;18.70;;;11.20;99.90;;;;;;4994744;28;20108;-76
2022/11/11 08:47:02;;;;;;;27.02;17.73;;;11.20;99.90;;;;;;4994931;28;20088;-76
2022/11/11 08:49:28;;;;;;;29.17;18.02;;;11.20;99.90;;;;;;4994142;28;20088;-76
2022/11/11 08:51:53;;;;;;;28.60;17.45;;;11.20;99.90;;;;;;4994772;28;20045;-76
2022/11/11 08:54:19;;;;;;;28.10;17.92;;;11.20;99.90;;;;;;5012088;28;20052;-75
2022/11/11 08:56:44;;;;;;;27.60;17.17;;;11.20;99.90;;;;;;4994644;28;20116;-76
2022/11/11 08:59:10;;;;;;;28.58;18.08;;;11.20;99.90;;;;;;4994047;28;20110;-76
2022/11/11 09:01:36;;;;;;;26.05;17.52;;;11.20;99.90;;;;;;4994341;28;20090;-76
2022/11/11 09:04:02;;;;;;;27.67;16.77;;;11.20;99.90;;;;;;4994143;28;20045;-77
2022/11/11 09:06:28;;;;;;;27.65;16.33;;;11.20;99.90;;;;;;4994260;28;20065;-75
2022/11/11 09:08:53;;;;;;;28.33;17.20;;;11.20;99.90;;;;;;4993757;28;20065;-75
2022/11/11 09:11:19;;;;;;;26.33;17.67;;;11.20;99.90;;;;;;4994372;28;20096;-76
2022/11/11 09:13:46;;;;;;;26.08;17.90;;;11.20;99.90;;;;;;4994129;28;20045;-76
2022/11/11 09:16:12;;;;;;;26.25;17.48;;;11.20;99.90;;;;;;4994469;28;20415;-75
2022/11/11 09:18:37;;;;;;;26.17;17.42;;;11.20;99.90;;;;;;4993843;28;20200;-76
2022/11/11 09:21:03;;;;;;;28.08;18.67;;;11.20;99.90;;;;;;4993965;28;20495;-75
2022/11/11 09:23:29;;;;;;;26.42;17.23;;;11.20;99.90;;;;;;4994003;28;20042;-76
2022/11/11 09:25:56;;;;;;;25.38;17.00;;;11.20;99.90;;;;;;4993976;28;20133;-76
2022/11/11 09:28:22;;;;;;;28.30;17.65;;;11.20;99.90;;;;;;4993684;28;20038;-75
2022/11/11 09:30:48;;;;;;;24.45;17.02;;;11.20;99.90;;;;;;4992568;28;20515;-75
2022/11/11 09:33:15;;;;;;;24.40;17.02;;;11.20;99.90;;;;;;4977621;28;20037;-75
2022/11/11 09:35:41;;;;;;;30.75;18.15;;;11.20;99.90;;;;;;4993220;28;20042;-75
2022/11/11 09:38:07;;;;;;;24.98;17.35;;;11.20;99.90;;;;;;4993614;28;20546;-76
2022/11/11 09:40:55;;;;;;;24.65;16.73;;;11.20;99.90;;;;;;4993766;28;20046;-76
2022/11/11 09:43:42;;;;;;;23.67;17.10;;;11.20;99.90;;;;;;4993733;28;20038;-76
2022/11/11 09:46:30;;;;;;;29.23;17.60;;;11.20;99.90;;;;;;4993662;28;20049;-76
2022/11/11 09:49:05;;;;;;;25.73;15.85;;;11.20;99.90;;;;;;4993407;28;20040;-75
2022/11/11 09:51:50;;;;;;;30.17;17.80;;;11.20;99.90;;;;;;4994022;28;20045;-76
2022/11/11 09:54:36;;;;;;;23.48;15.98;;;11.10;99.90;;;;;;4993816;28;20479;-75
2022/11/11 09:57:07;;;;;;;27.17;16.55;;;11.10;99.90;;;;;;4993704;28;20042;-76
2022/11/11 09:59:44;;;;;;;23.23;15.95;;;11.20;99.90;;;;;;4993443;28;20050;-76
2022/11/11 10:02:29;;;;;;;25.75;15.93;;;11.20;99.90;;;;;;4993588;28;20172;-76
2022/11/11 10:05:08;;;;;;;23.83;16.40;;;11.20;99.90;;;;;;4993636;28;20046;-75
2022/11/11 10:07:49;;;;;;;24.23;15.35;;;11.10;99.90;;;;;;4993200;28;20483;-75
2022/11/11 10:10:29;;;;;;;28.60;15.80;;;11.10;99.90;;;;;;4993354;28;20076;-76
2022/11/11 10:12:56;;;;;;;27.42;16.85;;;11.20;99.90;;;;;;4993887;28;20042;-76
2022/11/11 10:15:28;;;;;;;23.02;15.00;;;11.10;99.90;;;;;;4993467;28;20048;-77
2022/11/11 10:18:09;;;;;;;26.13;17.15;;;11.20;99.90;;;;;;4993241;28;20042;-75
2022/11/11 10:20:41;;;;;;;26.08;17.02;;;11.20;99.90;;;;;;4993639;28;20061;-76
2022/11/11 10:23:14;;;;;;;22.50;15.63;;;11.20;99.90;;;;;;4993406;28;20117;-76
2022/11/11 10:25:55;;;;;;;20.55;15.38;;;11.20;99.90;;;;;;4993456;28;20037;-76
2022/11/11 10:28:29;;;;;;;26.60;17.33;;;11.20;99.90;;;;;;4993281;28;20049;-77
2022/11/11 10:30:55;;;;;;;24.65;16.85;;;11.20;99.90;;;;;;4993615;28;20044;-75
2022/11/11 10:33:29;;;;;;;25.58;16.60;;;11.20;99.90;;;;;;4997025;28;20161;-76
2022/11/11 10:35:59;;;;;;;24.73;16.20;;;11.20;99.90;;;;;;4997084;28;20084;-76
2022/11/11 10:38:38;;;;;;;24.30;17.02;;;11.20;99.90;;;;;;4996686;28;20037;-75
2022/11/11 10:41:26;;;;;;;24.60;16.10;;;11.30;99.90;;;;;;4997288;28;20074;-75
2022/11/11 10:43:51;;;;;;;25.00;15.85;;;11.20;99.90;;;;;;4996824;28;20081;-78
2022/11/11 10:46:26;;;;;;;25.63;16.00;;;11.30;99.90;;;;;;4979025;28;20077;-78
2022/11/11 10:49:09;;;;;;;23.48;15.18;;;11.30;99.90;;;;;;4996492;28;20041;-78
2022/11/11 10:51:48;;;;;;;23.25;15.95;;;11.30;99.90;;;;;;4996500;28;20044;-78
2022/11/11 10:54:23;;;;;;;21.55;16.17;;;11.40;99.90;;;;;;4995393;28;20038;-78
2022/11/11 10:56:58;;;;;;;21.42;16.27;;;11.40;99.90;;;;;;4997054;28;20499;-77
2022/11/11 10:59:30;;;;;;;20.73;15.15;;;11.50;99.90;;;;;;4996685;28;20084;-79
2022/11/11 11:02:25;;;;;;;22.48;15.38;;;11.50;99.90;;;;;;4995841;28;20074;-79
2022/11/11 11:04:59;;;;;;;23.63;15.95;;;11.50;99.90;;;;;;4988672;28;20057;-77
2022/11/11 11:07:32;;;;;;;23.40;15.63;;;11.60;99.90;;;;;;4995703;28;20392;-78
2022/11/11 11:10:04;;;;;;;22.38;15.95;;;11.60;99.90;;;;;;4996281;28;20114;-77
2022/11/11 11:12:38;;;;;;;23.65;14.98;;;11.60;99.90;;;;;;4996347;28;20034;-79
2022/11/11 11:15:10;;;;;;;23.98;15.55;;;11.70;99.90;;;;;;4980296;28;20046;-78
2022/11/11 11:17:45;;;;;;;20.55;15.35;;;11.70;99.90;;;;;;4996347;28;20418;-76
2022/11/11 11:20:19;;;;;;;23.27;15.68;;;11.60;99.90;;;;;;4996228;28;20038;-78
2022/11/11 11:22:58;;;;;;;24.33;14.52;;;11.60;99.90;;;;;;4980016;28;20042;-79
2022/11/11 11:25:28;;;;;;;23.98;15.85;;;11.60;99.90;;;;;;4996219;28;20053;-78
2022/11/11 11:28:07;;;;;;;22.98;15.48;;;11.70;99.90;;;;;;4996234;28;20061;-78
2022/11/11 11:30:32;;;;;;;23.42;15.43;;;11.70;99.90;;;;;;4996180;28;20081;-78
2022/11/11 11:33:00;;;;;;;21.55;14.20;;;11.70;99.90;;;;;;4979878;28;20099;-78
2022/11/11 11:35:41;;;;;;;22.70;15.50;;;11.70;99.90;;;;;;4979667;28;20052;-77
2022/11/11 11:38:09;;;;;;;23.42;15.20;;;11.70;99.90;;;;;;4976466;28;20050;-78
2022/11/11 11:40:44;;;;;;;23.95;14.65;;;11.80;99.90;;;;;;4977504;28;20046;-78
2022/11/11 11:43:24;;;;;;;21.50;15.70;;;11.70;99.90;;;;;;4995149;28;20077;-78
2022/11/11 11:45:56;;;;;;;21.02;14.05;;;11.70;99.90;;;;;;4979549;28;20038;-77
2022/11/11 11:48:46;;;;;;;19.80;13.77;;;11.80;99.90;;;;;;4978840;28;20034;-78
2022/11/11 11:51:31;;;;;;;20.73;13.90;;;11.80;99.90;;;;;;4995259;28;20499;-77
2022/11/11 11:54:29;;;;;;;17.88;14.48;;;11.80;99.90;;;;;;4995517;28;20042;-77
2022/11/11 11:57:00;;;;;;;18.90;13.13;;;11.80;99.90;;;;;;4995346;28;20383;-77
2022/11/11 11:59:41;;;;;;;21.00;14.57;;;11.80;99.90;;;;;;4994595;28;20038;-78
2022/11/11 12:02:44;;;;;;;20.05;13.55;;;11.80;99.90;;;;;;4987316;28;20054;-78
2022/11/11 12:05:40;;;;;;;21.10;13.93;;;11.80;99.90;;;;;;4990522;28;20129;-77
2022/11/11 12:08:08;;;;;;;18.40;12.35;;;11.80;99.90;;;;;;4990126;28;20137;-79
2022/11/11 12:10:39;;;;;;;19.48;13.32;;;11.80;99.90;;;;;;4974371;28;20046;-78
2022/11/11 12:13:16;;;;;;;22.15;14.10;;;11.80;99.90;;;;;;4974099;28;20048;-77
2022/11/11 12:15:50;;;;;;;20.00;14.18;;;11.80;99.90;;;;;;4974644;28;20038;-78
2022/11/11 12:18:38;;;;;;;20.65;13.73;;;11.70;99.90;;;;;;4973921;28;20038;-77
2022/11/11 12:21:09;;;;;;;22.05;14.27;;;11.70;99.90;;;;;;4990338;28;20129;-77
2022/11/11 12:23:53;;;;;;;19.33;13.88;;;11.80;99.90;;;;;;4986067;28;20043;-77
2022/11/11 12:26:33;;;;;;;19.10;12.95;;;11.70;99.90;;;;;;4990636;28;20045;-78
2022/11/11 12:29:08;;;;;;;21.30;13.98;;;11.80;99.90;;;;;;4991083;28;20048;-77
2022/11/11 12:31:52;;;;;;;19.70;14.02;;;11.70;99.90;;;;;;4993643;28;20168;-78
2022/11/11 12:34:34;;;;;;;18.90;13.05;;;11.70;99.90;;;;;;4994875;28;20048;-78
2022/11/11 12:37:17;;;;;;;17.65;12.30;;;11.70;99.90;;;;;;5005904;28;20112;-77
2022/11/11 12:40:13;;;;;;;20.42;13.82;;;11.70;99.90;;;;;;5011494;28;20432;-78
2022/11/11 12:42:55;;;;;;;20.73;14.27;;;11.70;99.90;;;;;;4994785;28;20041;-77
2022/11/11 12:45:25;;;;;;;20.55;13.30;;;11.60;99.90;;;;;;4994598;28;20092;-78
2022/11/11 12:48:11;;;;;;;20.23;13.45;;;11.60;99.90;;;;;;4994446;28;20511;-77
2022/11/11 12:50:48;;;;;;;17.75;13.25;;;11.60;99.90;;;;;;4994602;28;20086;-77
2022/11/11 12:53:30;;;;;;;21.38;13.60;;;11.60;99.90;;;;;;4994342;28;20486;-78
2022/11/11 12:56:24;;;;;;;21.67;13.90;;;11.60;99.90;;;;;;4994227;28;20198;-78
2022/11/11 12:58:56;;;;;;;20.90;13.35;;;11.60;99.90;;;;;;4994203;28;20426;-79
2022/11/11 13:01:59;;;;;;;20.00;14.13;;;11.60;99.90;;;;;;4977655;28;20056;-78
2022/11/11 13:04:39;;;;;;;23.15;14.05;;;11.60;99.90;;;;;;4979975;28;20053;-78
2022/11/11 13:07:43;;;;;;;18.13;13.25;;;11.60;99.90;;;;;;4988677;28;20030;-78
2022/11/11 13:10:45;;;;;;;24.15;14.52;;;11.50;99.90;;;;;;4972432;28;20054;-77
2022/11/11 13:13:39;;;;;;;21.58;14.80;;;11.50;99.90;;;;;;4974052;28;20359;-78
2022/11/11 13:16:07;;;;;;;21.03;13.90;;;11.50;99.90;;;;;;4987750;28;20031;-77
2022/11/11 13:18:50;;;;;;;21.08;14.15;;;11.50;99.90;;;;;;4988744;28;20050;-77
2022/11/11 13:21:25;;;;;;;20.50;13.23;;;11.50;99.90;;;;;;4989491;28;20073;-78
2022/11/11 13:23:52;;;;;;;21.05;14.77;;;11.50;99.90;;;;;;4989523;28;20136;-78
2022/11/11 13:26:29;;;;;;;19.98;14.40;;;11.50;99.90;;;;;;4993725;28;20096;-77
2022/11/11 13:29:09;;;;;;;24.13;15.38;;;11.50;99.90;;;;;;4993273;28;20030;-78
2022/11/11 13:31:39;;;;;;;24.40;14.45;;;11.40;99.90;;;;;;4993610;28;20034;-78
2022/11/11 13:34:10;;;;;;;23.85;14.63;;;11.50;99.90;;;;;;4993649;28;20065;-78
2022/11/11 13:36:44;;;;;;;21.70;14.35;;;11.50;99.90;;;;;;4994009;28;20078;-74
2022/11/11 13:39:23;;;;;;;24.30;14.70;;;11.50;99.90;;;;;;4993345;28;20038;-76
2022/11/11 13:41:52;;;;;;;20.63;13.82;;;11.50;99.90;;;;;;4990570;28;20142;-76
2022/11/11 13:44:29;;;;;;;22.15;14.52;;;11.50;99.90;;;;;;4992342;28;20042;-75
2022/11/11 13:47:05;;;;;;;23.45;15.15;;;11.50;99.90;;;;;;4989457;28;20451;-75
2022/11/11 13:49:45;;;;;;;19.10;12.82;;;11.50;99.90;;;;;;4991558;28;20092;-77
2022/11/11 13:52:48;;;;;;;18.52;13.65;;;11.50;99.90;;;;;;4992060;28;20062;-75
2022/11/11 13:55:32;;;;;;;20.90;14.45;;;11.50;99.90;;;;;;4990665;28;20038;-76
2022/11/11 13:57:59;;;;;;;22.20;14.07;;;11.50;99.90;;;;;;4993044;28;20038;-76
2022/11/11 14:00:28;;;;;;;21.10;13.95;;;11.50;99.90;;;;;;4992079;28;20061;-75
2022/11/11 14:03:12;;;;;;;18.60;13.10;;;11.50;99.90;;;;;;4972416;28;20034;-76
2022/11/11 14:05:38;;;;;;;20.30;14.07;;;11.50;99.90;;;;;;4996551;28;20038;-75
2022/11/11 14:08:05;;;;;;;23.02;13.85;;;11.50;99.90;;;;;;4992606;28;20475;-75
2022/11/11 14:10:34;;;;;;;23.95;14.90;;;11.50;99.90;;;;;;4993443;28;20045;-76
2022/11/11 14:13:22;;;;;;;25.13;14.25;;;11.50;99.90;;;;;;4979042;28;20409;-75
2022/11/11 14:15:53;;;;;;;22.52;13.90;;;11.50;99.90;;;;;;4993853;28;20043;-75